Time;durP1;ratioP1;P1;durP2;ratioP2;P2;SDS_P1;SDS_P2;PMS_P1;PMS_P2;Temp;Humidity;BMP_temperature;BMP_pressure;BME280_temperature;BME280_humidity;BME280_pressure;Samples;Min_cycle;Max_cycle;Signal;HPM_P1;HPM_P2
2023/01/08 00:01:21;;;;;;;6.80;3.88;;;;;;;7.85;78.57;100829.91;4951154;28;20158;-57
2023/01/08 00:03:46;;;;;;;3.97;2.25;;;;;;;7.83;78.50;100837.00;4954178;28;20114;-53
2023/01/08 00:06:14;;;;;;;7.93;3.63;;;;;;;7.86;78.25;100836.03;4951773;28;20088;-53
2023/01/08 00:08:40;;;;;;;8.63;3.83;;;;;;;7.88;78.15;100824.56;4957345;28;20083;-54
2023/01/08 00:11:06;;;;;;;9.50;4.13;;;;;;;7.90;77.89;100830.56;4951916;28;20139;-57
2023/01/08 00:13:31;;;;;;;4.95;3.15;;;;;;;7.89;78.14;100823.63;4948823;28;20088;-60
2023/01/08 00:16:05;;;;;;;6.30;3.55;;;;;;;7.89;78.14;100815.78;4951759;28;20111;-55
2023/01/08 00:18:31;;;;;;;6.65;3.60;;;;;;;7.92;78.17;100815.63;4948358;28;20099;-53
2023/01/08 00:20:57;;;;;;;6.55;3.55;;;;;;;7.94;77.97;100813.78;4957502;28;20101;-53
2023/01/08 00:23:22;;;;;;;7.15;4.00;;;;;;;7.94;77.95;100816.38;4959021;28;20559;-52
2023/01/08 00:25:48;;;;;;;8.20;3.75;;;;;;;7.92;77.86;100818.25;4953945;28;20173;-54
2023/01/08 00:28:14;;;;;;;8.38;4.50;;;;;;;7.91;77.82;100808.69;4957091;28;20103;-60
2023/01/08 00:30:39;;;;;;;4.45;2.30;;;;;;;7.89;77.79;100805.28;4955225;28;20079;-58
2023/01/08 00:33:05;;;;;;;8.93;4.47;;;;;;;7.89;78.08;100813.16;4952790;28;20068;-53
2023/01/08 00:35:30;;;;;;;6.75;4.38;;;;;;;7.92;77.88;100805.16;4945485;28;20083;-56
2023/01/08 00:37:56;;;;;;;7.80;4.60;;;;;;;7.95;77.45;100798.91;4954996;28;20092;-57
2023/01/08 00:40:21;;;;;;;7.72;4.15;;;;;;;7.97;77.44;100796.22;4969246;28;20483;-57
2023/01/08 00:42:47;;;;;;;10.05;4.65;;;;;;;7.99;77.33;100786.50;4945570;28;20080;-57
2023/01/08 00:45:13;;;;;;;5.85;3.67;;;;;;;8.00;77.22;100796.94;4946167;28;20554;-58
2023/01/08 00:47:38;;;;;;;5.70;3.75;;;;;;;8.01;77.29;100788.16;4952242;28;20170;-57
2023/01/08 00:50:04;;;;;;;7.07;4.05;;;;;;;7.99;76.99;100784.75;4952497;28;20079;-56
2023/01/08 00:52:29;;;;;;;6.85;4.68;;;;;;;8.00;77.23;100769.88;4953063;28;20091;-56
2023/01/08 00:54:55;;;;;;;9.23;4.22;;;;;;;7.99;77.13;100776.03;4956697;28;20102;-57
2023/01/08 00:57:20;;;;;;;6.35;3.75;;;;;;;8.00;77.24;100767.25;4955067;28;20079;-58
2023/01/08 00:59:46;;;;;;;6.40;3.70;;;;;;;8.01;77.10;100766.34;4952698;28;20122;-57
2023/01/08 01:02:11;;;;;;;6.03;3.97;;;;;;;7.99;76.97;100755.06;4956004;28;20087;-55
2023/01/08 01:04:37;;;;;;;6.13;4.47;;;;;;;8.00;77.11;100756.78;4951620;28;20087;-55
2023/01/08 01:07:03;;;;;;;8.45;4.38;;;;;;;8.00;77.00;100756.78;4956255;28;20091;-57
2023/01/08 01:09:29;;;;;;;9.55;4.50;;;;;;;7.99;76.97;100752.44;4956499;28;20131;-57
2023/01/08 01:11:54;;;;;;;8.38;4.60;;;;;;;8.00;77.02;100748.91;4952912;28;20543;-56
2023/01/08 01:14:20;;;;;;;7.97;4.00;;;;;;;8.00;76.79;100751.53;4953857;28;20106;-57
2023/01/08 01:16:47;;;;;;;7.07;4.20;;;;;;;8.01;76.78;100750.63;4947886;28;20122;-54
2023/01/08 01:19:14;;;;;;;7.82;4.15;;;;;;;8.00;76.67;100743.66;4948725;28;20562;-54
2023/01/08 01:21:39;;;;;;;7.45;4.32;;;;;;;8.02;76.85;100753.16;4950309;28;20487;-56
2023/01/08 01:24:06;;;;;;;10.15;4.38;;;;;;;8.03;76.65;100748.78;4954780;28;20084;-54
2023/01/08 01:26:32;;;;;;;7.53;3.85;;;;;;;8.04;76.40;100745.22;4949238;28;20122;-54
2023/01/08 01:28:58;;;;;;;7.53;4.25;;;;;;;8.01;76.76;100735.75;4953631;28;20579;-53
2023/01/08 01:31:26;;;;;;;5.97;4.30;;;;;;;8.02;76.44;100734.81;4951701;28;20084;-53
2023/01/08 01:33:52;;;;;;;6.60;3.95;;;;;;;8.01;76.44;100724.41;4949040;28;20095;-57
2023/01/08 01:36:22;;;;;;;8.32;4.63;;;;;;;8.04;76.35;100729.50;4951845;28;20084;-53
2023/01/08 01:38:49;;;;;;;7.40;4.10;;;;;;;8.01;76.45;100729.66;4952847;28;20096;-53
2023/01/08 01:41:31;;;;;;;9.20;4.40;;;;;;;8.00;76.47;100731.44;4950672;28;20083;-63
2023/01/08 01:44:34;;;;;;;7.00;4.38;;;;;;;8.01;76.21;100729.66;4949734;28;20084;-53
2023/01/08 01:47:04;;;;;;;6.63;4.60;;;;;;;8.01;76.26;100719.16;4953015;28;20086;-54
2023/01/08 01:49:31;;;;;;;10.63;4.50;;;;;;;8.03;76.06;100727.81;4940939;28;20660;-60
2023/01/08 01:52:01;;;;;;;6.88;4.47;;;;;;;8.03;76.39;100709.47;4950021;28;20084;-53
2023/01/08 01:54:29;;;;;;;7.55;4.15;;;;;;;8.01;76.26;100708.69;4954127;28;20107;-54
2023/01/08 01:56:56;;;;;;;9.65;4.70;;;;;;;8.00;76.24;100701.75;4953829;28;20091;-55
2023/01/08 01:59:22;;;;;;;6.47;4.13;;;;;;;7.97;76.12;100710.59;4952025;28;20575;-53
2023/01/08 02:01:48;;;;;;;8.63;4.80;;;;;;;7.94;76.03;100708.97;4949293;28;20084;-54
2023/01/08 02:04:14;;;;;;;7.00;4.82;;;;;;;7.88;76.42;100697.94;4946491;28;20084;-56
2023/01/08 02:06:54;;;;;;;5.50;4.18;;;;;;;7.85;76.58;100709.41;4952466;28;20555;-58
2023/01/08 02:09:46;;;;;;;7.30;4.80;;;;;;;7.82;76.45;100712.16;4948637;28;20087;-53
2023/01/08 02:12:20;;;;;;;8.43;4.20;;;;;;;7.84;76.45;100707.72;4955495;28;20095;-53
2023/01/08 02:14:57;;;;;;;5.70;4.05;;;;;;;7.79;76.48;100693.97;4951860;28;20601;-54
2023/01/08 02:17:32;;;;;;;6.68;3.80;;;;;;;7.73;76.61;100689.88;4951981;28;20087;-53
2023/01/08 02:20:07;;;;;;;5.43;3.83;;;;;;;7.62;76.62;100672.06;4952863;28;20215;-53
2023/01/08 02:22:53;;;;;;;7.40;4.70;;;;;;;7.55;76.82;100668.00;4954766;28;20083;-53
2023/01/08 02:26:04;;;;;;;6.47;4.63;;;;;;;7.43;76.93;100660.72;4954000;28;20092;-53
2023/01/08 02:28:38;;;;;;;6.47;4.38;;;;;;;7.38;76.93;100660.06;4948525;28;20130;-54
2023/01/08 02:31:04;;;;;;;8.35;4.65;;;;;;;7.32;77.43;100667.31;4949843;28;20100;-54
2023/01/08 02:33:31;;;;;;;6.32;4.03;;;;;;;7.26;77.26;100654.50;4953611;28;20555;-55
2023/01/08 02:36:16;;;;;;;8.48;4.00;;;;;;;7.16;77.33;100658.44;4951826;28;20178;-53
2023/01/08 02:39:00;;;;;;;9.13;4.43;;;;;;;7.14;77.44;100660.28;4952543;28;20431;-53
2023/01/08 02:41:52;;;;;;;8.15;4.47;;;;;;;7.09;77.42;100649.16;4956522;28;20103;-57
2023/01/08 02:44:44;;;;;;;6.63;4.20;;;;;;;7.05;77.40;100647.59;4952257;28;20548;-54
2023/01/08 02:47:19;;;;;;;5.85;4.35;;;;;;;6.99;77.57;100646.09;4949570;28;20170;-59
2023/01/08 02:49:48;;;;;;;6.93;4.18;;;;;;;6.94;77.55;100654.16;4952589;28;20459;-53
2023/01/08 02:52:16;;;;;;;7.55;4.40;;;;;;;6.90;77.83;100657.81;4942174;28;20088;-54
2023/01/08 02:54:46;;;;;;;7.90;4.18;;;;;;;6.85;77.87;100659.81;4944976;28;20091;-53
2023/01/08 02:57:13;;;;;;;8.07;4.57;;;;;;;6.77;78.08;100651.41;4945805;28;20083;-62
2023/01/08 02:59:43;;;;;;;7.32;4.70;;;;;;;6.73;78.09;100644.66;4942405;28;20563;-53
2023/01/08 03:02:10;;;;;;;8.50;4.30;;;;;;;6.67;78.14;100635.28;4943240;28;20091;-53
2023/01/08 03:04:44;;;;;;;7.63;5.15;;;;;;;6.60;78.10;100634.69;4941641;28;20486;-55
2023/01/08 03:07:10;;;;;;;6.18;4.57;;;;;;;6.56;78.31;100622.69;4947566;28;20107;-52
2023/01/08 03:09:36;;;;;;;6.30;4.70;;;;;;;6.51;78.27;100620.25;4950991;28;20616;-55
2023/01/08 03:12:10;;;;;;;8.95;5.18;;;;;;;6.48;78.41;100616.91;4952013;28;20316;-53
2023/01/08 03:14:56;;;;;;;8.77;4.78;;;;;;;6.47;78.49;100617.84;4952267;28;20082;-54
2023/01/08 03:17:28;;;;;;;8.57;4.70;;;;;;;6.43;78.29;100629.34;4952233;28;20088;-61
2023/01/08 03:20:00;;;;;;;;;;;;;;;6.30;78.38;100622.00;4950500;28;20441;-54
2023/01/08 03:22:29;;;;;;;9.45;5.35;;;;;;;6.28;78.39;100610.75;4950111;28;19974;-61
2023/01/08 03:24:57;;;;;;;6.55;3.20;;;;;;;6.20;78.74;100615.47;4948866;28;20107;-54
2023/01/08 03:27:28;;;;;;;8.32;5.00;;;;;;;6.15;79.13;100612.19;4945958;28;20087;-54
2023/01/08 03:29:57;;;;;;;8.20;4.70;;;;;;;6.10;78.78;100615.88;4948910;28;20183;-55
2023/01/08 03:32:26;;;;;;;6.93;4.28;;;;;;;6.08;78.99;100607.22;4949572;28;20086;-54
2023/01/08 03:34:55;;;;;;;9.23;5.15;;;;;;;6.05;79.04;100606.53;4947135;28;20158;-58
2023/01/08 03:37:26;;;;;;;11.65;6.40;;;;;;;6.05;78.92;100612.56;4948037;28;20092;-54
2023/01/08 03:39:59;;;;;;;10.25;5.55;;;;;;;6.03;79.23;100608.34;4945788;28;20619;-56
2023/01/08 03:42:25;;;;;;;;;;;;;;;5.93;79.36;100603.44;4943095;28;20182;-56
2023/01/08 03:44:50;;;;;;;9.27;5.22;;;;;;;5.94;79.17;100596.47;4943349;28;20010;-62
2023/01/08 03:47:19;;;;;;;9.73;5.10;;;;;;;5.95;78.96;100595.56;4946380;28;20106;-56
2023/01/08 03:49:45;;;;;;;7.80;5.05;;;;;;;5.94;78.98;100586.84;4942208;28;20106;-56
2023/01/08 03:52:24;;;;;;;9.65;5.45;;;;;;;5.92;79.08;100585.22;4942741;28;20079;-58
2023/01/08 03:54:49;;;;;;;8.70;5.00;;;;;;;5.90;79.26;100590.50;4945702;28;20083;-56
2023/01/08 03:57:15;;;;;;;7.80;4.90;;;;;;;5.90;78.99;100587.06;4945969;28;20462;-56
2023/01/08 03:59:40;;;;;;;7.75;4.65;;;;;;;5.86;79.36;100581.13;4941145;28;20125;-56
2023/01/08 04:02:06;;;;;;;9.30;5.00;;;;;;;5.84;79.07;100593.38;4938427;28;20522;-54
2023/01/08 04:04:31;;;;;;;7.47;5.03;;;;;;;5.82;79.30;100591.75;4942615;28;20083;-53
2023/01/08 04:06:56;;;;;;;7.88;4.70;;;;;;;5.79;79.33;100580.50;4944831;28;20127;-58
2023/01/08 04:09:22;;;;;;;8.77;5.38;;;;;;;5.78;79.50;100583.16;4946805;28;20091;-53
2023/01/08 04:11:47;;;;;;;8.68;4.93;;;;;;;5.78;79.57;100578.81;4945097;28;20535;-54
2023/01/08 04:14:13;;;;;;;9.68;6.78;;;;;;;5.76;79.42;100569.31;4941011;28;20158;-57
2023/01/08 04:16:38;;;;;;;12.35;6.32;;;;;;;5.75;79.24;100565.88;4945825;28;20243;-53
2023/01/08 04:19:04;;;;;;;8.63;4.78;;;;;;;5.73;79.26;100578.13;4941901;28;20118;-60
2023/01/08 04:21:29;;;;;;;10.32;5.28;;;;;;;5.73;79.44;100574.69;4945185;28;20151;-55
2023/01/08 04:23:55;;;;;;;9.38;5.32;;;;;;;5.70;79.15;100567.81;4943563;28;20080;-55
2023/01/08 04:26:20;;;;;;;9.63;5.20;;;;;;;5.70;79.13;100577.41;4947715;28;20084;-54
2023/01/08 04:28:45;;;;;;;9.38;5.35;;;;;;;5.67;79.20;100570.56;4950640;28;20106;-58
2023/01/08 04:31:11;;;;;;;8.32;5.47;;;;;;;5.66;79.32;100568.88;4948209;28;20095;-58
2023/01/08 04:33:36;;;;;;;9.38;5.40;;;;;;;5.64;79.43;100578.50;4944363;28;20147;-55
2023/01/08 04:36:03;;;;;;;7.30;5.15;;;;;;;5.64;79.79;100571.53;4942780;28;20171;-55
2023/01/08 04:38:28;;;;;;;13.05;7.43;;;;;;;5.64;79.27;100568.06;4945043;28;20591;-53
2023/01/08 04:40:58;;;;;;;10.00;6.10;;;;;;;5.62;79.47;100565.50;4943034;28;20127;-56
2023/01/08 04:43:24;;;;;;;8.25;4.95;;;;;;;5.63;79.26;100563.75;4941999;28;20072;-57
2023/01/08 04:45:49;;;;;;;10.75;5.63;;;;;;;5.64;79.53;100570.69;4943244;28;20099;-61
2023/01/08 04:48:15;;;;;;;10.13;5.57;;;;;;;5.63;79.64;100574.19;4942177;28;20150;-64
2023/01/08 04:50:40;;;;;;;8.70;5.45;;;;;;;5.61;79.66;100584.69;4943901;28;20083;-57
2023/01/08 04:53:06;;;;;;;8.07;5.32;;;;;;;5.62;79.49;100581.16;4948235;28;20111;-58
2023/01/08 04:55:32;;;;;;;8.68;5.55;;;;;;;5.63;79.54;100574.19;4947389;28;20080;-57
2023/01/08 04:57:58;;;;;;;8.93;5.70;;;;;;;5.62;79.63;100562.06;4946509;28;20103;-59
2023/01/08 05:00:23;;;;;;;9.75;5.38;;;;;;;5.63;79.21;100553.31;4949224;28;20099;-54
2023/01/08 05:02:49;;;;;;;8.60;4.93;;;;;;;5.63;79.22;100569.81;4943193;28;20088;-64
2023/01/08 05:05:14;;;;;;;9.82;5.35;;;;;;;5.60;79.59;100572.53;4950010;28;20591;-55
2023/01/08 05:07:40;;;;;;;8.10;5.18;;;;;;;5.58;79.49;100566.56;4949497;28;20512;-61
2023/01/08 05:10:06;;;;;;;9.20;5.80;;;;;;;5.57;79.15;100567.47;4941993;28;20095;-59
2023/01/08 05:12:31;;;;;;;10.77;6.30;;;;;;;5.57;79.19;100567.47;4945247;28;20683;-54
2023/01/08 05:14:57;;;;;;;8.40;5.28;;;;;;;5.58;79.40;100565.69;4945902;28;20098;-54
2023/01/08 05:17:22;;;;;;;11.52;6.47;;;;;;;5.57;79.32;100566.59;4948401;28;20084;-57
2023/01/08 05:19:48;;;;;;;10.82;5.88;;;;;;;5.55;79.51;100560.59;4951499;28;20096;-57
2023/01/08 05:22:13;;;;;;;9.23;5.28;;;;;;;5.55;79.36;100550.16;4949572;28;20080;-54
2023/01/08 05:24:39;;;;;;;13.60;5.60;;;;;;;5.53;79.46;100554.56;4946377;28;20092;-60
2023/01/08 05:27:04;;;;;;;9.82;6.18;;;;;;;5.54;79.35;100548.44;4945862;28;20090;-63
2023/01/08 05:29:29;;;;;;;9.88;5.70;;;;;;;5.54;79.38;100540.63;4947968;28;20096;-53
2023/01/08 05:31:55;;;;;;;8.80;5.18;;;;;;;5.55;79.38;100539.72;4950538;28;20439;-56
2023/01/08 05:34:20;;;;;;;8.25;5.68;;;;;;;5.56;79.37;100536.19;4951554;28;20437;-53
2023/01/08 05:36:46;;;;;;;9.32;5.60;;;;;;;5.56;79.49;100533.56;4947872;28;20551;-61
2023/01/08 05:39:11;;;;;;;10.70;5.88;;;;;;;5.57;79.13;100528.31;4944963;28;20122;-56
2023/01/08 05:41:37;;;;;;;9.40;5.95;;;;;;;5.59;79.53;100525.63;4948586;28;20091;-56
2023/01/08 05:44:02;;;;;;;9.48;6.03;;;;;;;5.61;79.41;100518.59;4948048;28;20094;-55
2023/01/08 05:46:28;;;;;;;11.65;5.53;;;;;;;5.63;79.09;100512.38;4946285;28;20487;-56
2023/01/08 05:48:53;;;;;;;9.35;4.85;;;;;;;5.63;79.40;100503.72;4948118;28;20091;-54
2023/01/08 05:51:18;;;;;;;8.18;5.90;;;;;;;5.64;79.05;100515.88;4946836;28;20638;-54
2023/01/08 05:53:44;;;;;;;8.40;5.50;;;;;;;5.63;79.05;100508.94;4948402;28;20544;-56
2023/01/08 05:56:11;;;;;;;10.07;6.03;;;;;;;5.63;79.26;100506.34;4945870;28;20499;-53
2023/01/08 05:58:37;;;;;;;10.30;5.43;;;;;;;5.69;79.08;100495.63;4942730;28;20555;-54
2023/01/08 06:01:11;;;;;;;10.10;5.82;;;;;;;5.70;78.78;100507.75;4943999;28;20102;-56
2023/01/08 06:03:37;;;;;;;8.60;5.68;;;;;;;5.69;78.55;100511.28;4945041;28;20193;-56
2023/01/08 06:06:05;;;;;;;7.20;4.10;;;;;;;5.66;78.68;100514.03;4962261;28;20722;-54
2023/01/08 06:08:31;;;;;;;7.80;5.20;;;;;;;5.64;78.89;100521.91;4947378;28;20099;-57
2023/01/08 06:11:01;;;;;;;10.88;5.72;;;;;;;5.61;78.95;100513.38;4947728;28;20078;-54
2023/01/08 06:13:27;;;;;;;8.35;5.22;;;;;;;5.61;78.75;100519.44;4947622;28;20545;-54
2023/01/08 06:15:53;;;;;;;10.15;6.25;;;;;;;5.61;78.86;100510.75;4947643;28;21047;-55
2023/01/08 06:18:18;;;;;;;7.47;5.65;;;;;;;5.60;78.89;100506.44;4945497;28;20100;-64
2023/01/08 06:20:43;;;;;;;13.32;7.03;;;;;;;5.58;78.67;100500.44;4943967;28;20087;-55
2023/01/08 06:23:09;;;;;;;10.48;6.95;;;;;;;5.57;78.95;100499.59;4945756;28;20084;-60
2023/01/08 06:25:35;;;;;;;9.23;6.18;;;;;;;5.56;78.73;100494.44;4944580;28;20118;-57
2023/01/08 06:28:02;;;;;;;8.95;5.85;;;;;;;5.53;78.79;100486.72;4941527;28;20099;-57
2023/01/08 06:30:27;;;;;;;10.05;6.38;;;;;;;5.51;78.77;100481.56;4948319;28;20080;-57
2023/01/08 06:32:57;;;;;;;8.70;5.65;;;;;;;5.52;79.08;100477.22;4948569;28;20535;-59
2023/01/08 06:35:23;;;;;;;9.15;5.63;;;;;;;5.52;78.62;100479.81;4944434;28;20084;-59
2023/01/08 06:37:49;;;;;;;7.85;5.53;;;;;;;5.52;78.99;100487.66;4944139;28;20103;-64
2023/01/08 06:40:15;;;;;;;11.85;6.78;;;;;;;5.49;78.46;100484.25;4944584;28;20079;-54
2023/01/08 06:42:42;;;;;;;13.40;6.60;;;;;;;5.49;78.74;100478.16;4942521;28;20562;-54
2023/01/08 06:45:08;;;;;;;9.00;6.10;;;;;;;5.47;78.76;100478.25;4943836;28;20088;-58
2023/01/08 06:47:33;;;;;;;11.27;7.03;;;;;;;5.47;78.84;100485.22;4947562;28;20099;-53
2023/01/08 06:49:59;;;;;;;9.85;6.13;;;;;;;5.45;78.67;100477.47;4944873;28;20087;-58
2023/01/08 06:52:24;;;;;;;9.43;5.95;;;;;;;5.47;78.97;100480.00;4948641;28;20149;-54
2023/01/08 06:54:50;;;;;;;9.90;5.68;;;;;;;5.52;78.84;100487.66;4950719;28;20107;-57
2023/01/08 06:57:15;;;;;;;9.00;6.28;;;;;;;5.51;78.39;100485.97;4952351;28;20080;-54
2023/01/08 06:59:41;;;;;;;15.30;8.32;;;;;;;5.52;78.32;100492.88;4948801;28;20212;-55
2023/01/08 07:02:12;;;;;;;12.30;7.18;;;;;;;5.51;78.40;100486.78;4943171;28;20158;-56
2023/01/08 07:04:37;;;;;;;13.43;6.75;;;;;;;5.55;78.71;100484.91;4948343;28;20128;-60
2023/01/08 07:07:03;;;;;;;13.38;7.28;;;;;;;5.57;78.64;100480.47;4949656;28;20765;-61
2023/01/08 07:09:28;;;;;;;13.48;7.70;;;;;;;5.61;78.36;100477.66;4946358;28;20452;-54
2023/01/08 07:11:54;;;;;;;13.80;7.50;;;;;;;5.63;78.55;100470.63;4949899;28;20454;-58
2023/01/08 07:14:19;;;;;;;14.10;7.32;;;;;;;5.64;78.30;100467.09;4967437;28;20540;-54
2023/01/08 07:16:45;;;;;;;13.95;7.45;;;;;;;5.69;78.35;100473.91;4949783;28;20146;-61
2023/01/08 07:19:10;;;;;;;12.80;7.85;;;;;;;5.73;78.38;100459.81;4952236;28;20115;-59
2023/01/08 07:21:36;;;;;;;12.77;7.30;;;;;;;5.75;78.39;100466.66;4953264;28;20072;-55
2023/01/08 07:24:01;;;;;;;10.63;6.85;;;;;;;5.77;78.12;100467.44;4946830;28;20075;-53
2023/01/08 07:26:27;;;;;;;13.57;7.78;;;;;;;5.79;78.07;100468.22;4957748;28;20559;-57
2023/01/08 07:28:52;;;;;;;12.00;7.35;;;;;;;5.80;77.85;100467.31;4954209;28;20482;-54
2023/01/08 07:31:18;;;;;;;11.10;6.13;;;;;;;5.84;78.22;100467.16;4947169;28;20158;-54
2023/01/08 07:33:43;;;;;;;12.32;6.57;;;;;;;5.87;78.18;100480.09;4953068;28;20127;-57
2023/01/08 07:36:09;;;;;;;18.48;8.30;;;;;;;5.92;77.96;100470.31;4953788;28;20625;-57
2023/01/08 07:38:34;;;;;;;15.45;9.77;;;;;;;5.96;77.67;100477.13;4954788;28;20138;-58
2023/01/08 07:41:00;;;;;;;14.18;7.95;;;;;;;5.97;77.61;100473.59;4952454;28;20523;-60
2023/01/08 07:43:25;;;;;;;10.90;7.00;;;;;;;5.96;77.45;100471.91;4949419;28;20078;-56
2023/01/08 07:45:51;;;;;;;11.98;6.60;;;;;;;5.97;78.00;100464.91;4946670;28;20087;-60
2023/01/08 07:48:16;;;;;;;9.85;6.03;;;;;;;5.99;77.44;100471.75;4954473;28;20143;-55
2023/01/08 07:50:43;;;;;;;11.20;6.28;;;;;;;6.03;77.53;100470.72;4951287;28;20103;-56
2023/01/08 07:53:09;;;;;;;11.05;7.15;;;;;;;6.07;77.68;100459.25;4949162;28;20080;-61
2023/01/08 07:55:35;;;;;;;11.82;7.25;;;;;;;6.12;77.51;100455.59;4949431;28;20107;-58
2023/01/08 07:58:09;;;;;;;9.88;6.15;;;;;;;6.14;77.18;100469.41;4945227;28;20150;-56
2023/01/08 08:00:35;;;;;;;16.40;9.13;;;;;;;6.17;77.43;100474.50;4942012;28;20071;-57
2023/01/08 08:03:05;;;;;;;13.25;8.25;;;;;;;6.18;77.26;100464.00;4945854;28;20111;-57
2023/01/08 08:05:32;;;;;;;12.70;7.65;;;;;;;6.22;77.33;100457.72;4944010;28;20520;-56
2023/01/08 08:07:57;;;;;;;14.35;7.22;;;;;;;6.24;77.37;100460.28;4946487;28;20120;-56
2023/01/08 08:10:23;;;;;;;9.63;6.63;;;;;;;6.28;76.99;100453.13;4945485;28;20107;-56
2023/01/08 08:12:49;;;;;;;9.02;5.70;;;;;;;6.31;77.19;100456.47;4944877;28;20590;-56
2023/01/08 08:15:14;;;;;;;11.95;7.15;;;;;;;6.32;76.76;100458.16;4943129;28;20084;-56
2023/01/08 08:17:44;;;;;;;9.85;6.45;;;;;;;6.35;77.25;100463.25;4947070;28;20126;-55
2023/01/08 08:20:10;;;;;;;10.80;6.68;;;;;;;6.38;76.93;100457.03;4943766;28;20080;-55
2023/01/08 08:22:35;;;;;;;17.45;9.82;;;;;;;6.40;77.00;100455.19;4946452;28;20440;-56
2023/01/08 08:25:00;;;;;;;19.48;10.45;;;;;;;6.46;77.18;100456.69;4946899;28;20099;-58
2023/01/08 08:27:26;;;;;;;16.70;10.15;;;;;;;6.52;76.81;100448.56;4949986;28;20091;-57
2023/01/08 08:29:51;;;;;;;13.85;9.27;;;;;;;6.54;76.59;100444.13;4954439;28;20079;-56
2023/01/08 08:32:17;;;;;;;12.82;8.23;;;;;;;6.58;76.52;100437.00;4947995;28;20128;-56
2023/01/08 08:34:42;;;;;;;10.25;6.75;;;;;;;6.61;76.45;100432.47;4948182;28;20086;-58
2023/01/08 08:37:08;;;;;;;10.55;6.38;;;;;;;6.65;76.81;100436.63;4951432;28;20090;-58
2023/01/08 08:39:33;;;;;;;15.07;8.73;;;;;;;6.69;76.49;100435.59;4952011;28;20154;-55
2023/01/08 08:41:59;;;;;;;12.52;8.02;;;;;;;6.71;76.21;100444.22;4952380;28;20075;-56
2023/01/08 08:44:24;;;;;;;12.45;7.28;;;;;;;6.69;76.27;100440.81;4950710;28;20086;-58
2023/01/08 08:46:50;;;;;;;19.50;11.43;;;;;;;6.70;76.32;100445.13;4948083;28;20080;-58
2023/01/08 08:49:15;;;;;;;12.70;8.23;;;;;;;6.74;76.75;100444.97;4949962;28;20092;-58
2023/01/08 08:51:41;;;;;;;9.52;6.10;;;;;;;6.81;76.07;100446.38;4948836;28;20083;-60
2023/01/08 08:54:06;;;;;;;11.75;7.00;;;;;;;6.88;76.24;100444.31;4947091;28;20107;-59
2023/01/08 08:56:32;;;;;;;11.73;6.43;;;;;;;6.96;75.72;100437.81;4950144;28;20107;-58
2023/01/08 08:58:58;;;;;;;11.85;5.80;;;;;;;7.04;75.81;100442.69;4953580;28;20092;-57
2023/01/08 09:01:23;;;;;;;12.88;5.57;;;;;;;7.06;75.39;100443.47;4955582;28;20574;-58
2023/01/08 09:03:49;;;;;;;8.30;5.22;;;;;;;7.09;75.35;100440.69;4969941;28;20095;-58
2023/01/08 09:06:14;;;;;;;11.43;5.28;;;;;;;7.10;75.21;100441.53;4948483;28;20146;-59
2023/01/08 09:08:40;;;;;;;8.25;4.95;;;;;;;7.12;75.46;100437.91;4952481;28;20100;-55
2023/01/08 09:11:05;;;;;;;15.00;9.00;;;;;;;7.17;75.17;100445.56;4948599;28;20135;-58
2023/01/08 09:13:31;;;;;;;10.57;6.45;;;;;;;7.22;74.70;100438.31;4951745;28;20094;-59
2023/01/08 09:15:58;;;;;;;13.52;6.30;;;;;;;7.24;74.68;100436.47;4949814;28;20147;-57
2023/01/08 09:18:23;;;;;;;8.70;5.50;;;;;;;7.28;74.91;100443.28;4953760;28;20099;-57
2023/01/08 09:20:48;;;;;;;9.32;5.32;;;;;;;7.33;74.59;100441.25;4952102;28;20118;-58
2023/01/08 09:23:14;;;;;;;10.93;5.95;;;;;;;7.36;74.36;100434.19;4942828;28;20570;-56
2023/01/08 09:25:39;;;;;;;10.27;5.65;;;;;;;7.38;74.58;100442.81;4951371;28;20441;-57
2023/01/08 09:28:08;;;;;;;11.20;6.60;;;;;;;7.40;74.60;100433.13;4942312;28;20108;-57
2023/01/08 09:30:34;;;;;;;9.10;6.10;;;;;;;7.42;74.67;100433.88;4950076;28;20150;-57
2023/01/08 09:33:01;;;;;;;9.85;5.82;;;;;;;7.43;74.25;100440.81;4952222;28;20502;-58
2023/01/08 09:35:27;;;;;;;11.38;5.75;;;;;;;7.40;74.53;100433.97;4954144;28;20084;-56
2023/01/08 09:37:54;;;;;;;8.27;5.45;;;;;;;7.44;74.40;100432.03;4946101;28;20144;-55
2023/01/08 09:40:30;;;;;;;11.38;6.32;;;;;;;7.45;74.45;100439.81;4948182;28;20170;-58
2023/01/08 09:43:00;;;;;;;14.88;7.60;;;;;;;7.50;74.19;100442.19;4946331;28;20183;-58
2023/01/08 09:45:38;;;;;;;8.93;5.50;;;;;;;7.52;74.00;100434.28;4951135;28;20450;-58
2023/01/08 09:48:12;;;;;;;9.85;5.40;;;;;;;7.55;73.97;100424.50;4959722;23;20096;-63
2023/01/08 09:50:38;;;;;;;10.18;5.15;;;;;;;7.60;74.00;100417.25;4949067;28;20106;-64
2023/01/08 09:53:04;;;;;;;8.70;5.35;;;;;;;7.66;73.91;100420.47;4931499;28;20076;-63
2023/01/08 09:55:32;;;;;;;9.13;5.28;;;;;;;7.73;73.97;100422.72;4941929;28;20548;-60
2023/01/08 09:57:59;;;;;;;7.85;5.22;;;;;;;7.73;73.62;100421.88;4941110;28;20091;-60
2023/01/08 10:00:30;;;;;;;8.35;4.43;;;;;;;7.75;73.67;100430.50;4914190;29;20566;-62
2023/01/08 10:02:57;;;;;;;8.23;4.65;;;;;;;7.77;73.60;100412.94;4933017;29;20535;-63
2023/01/08 10:05:25;;;;;;;7.80;4.88;;;;;;;7.80;73.42;100402.28;4926317;29;20108;-60
2023/01/08 10:07:50;;;;;;;10.35;5.47;;;;;;;7.88;73.48;100400.13;4922481;28;20084;-62
2023/01/08 10:10:22;;;;;;;7.90;5.03;;;;;;;7.91;73.43;100389.50;4929087;28;20087;-62
2023/01/08 10:12:48;;;;;;;;;;;;;;;7.91;72.91;100379.03;4928595;29;20112;-62
2023/01/08 10:15:17;;;;;;;8.70;5.25;;;;;;;8.01;73.34;100368.03;4932517;29;20044;-62
2023/01/08 10:18:08;;;;;;;9.15;5.05;;;;;;;8.07;72.97;100370.34;4931143;29;20586;-62
2023/01/08 10:20:34;;;;;;;7.40;5.22;;;;;;;8.11;73.12;100374.47;4920826;29;20146;-63
2023/01/08 10:23:15;;;;;;;9.55;5.82;;;;;;;8.12;73.02;100391.06;4928686;29;20080;-60
2023/01/08 10:25:49;;;;;;;12.45;6.45;;;;;;;8.10;73.17;100401.59;4929541;29;20091;-62
2023/01/08 10:28:19;;;;;;;16.60;8.73;;;;;;;8.09;73.36;100402.56;4916039;29;21421;-62
2023/01/08 10:30:45;;;;;;;19.42;9.68;;;;;;;8.08;73.45;100399.09;4929705;29;20506;-62
2023/01/08 10:33:23;;;;;;;27.02;13.45;;;;;;;8.08;73.60;100403.50;4932681;29;20168;-60
2023/01/08 10:36:01;;;;;;;32.05;14.20;;;;;;;8.04;73.41;100396.72;4927436;29;20072;-61
2023/01/08 10:38:32;;;;;;;14.65;8.00;;;;;;;8.05;73.90;100385.31;4932598;29;20128;-60
2023/01/08 10:41:02;;;;;;;12.05;6.93;;;;;;;8.07;73.83;100383.44;4935504;29;20103;-60
2023/01/08 10:43:34;;;;;;;22.73;7.63;;;;;;;8.06;73.89;100376.53;4931768;29;20080;-60
2023/01/08 10:46:04;;;;;;;11.40;6.25;;;;;;;8.10;73.98;100372.78;4928546;29;20080;-60
2023/01/08 10:48:37;;;;;;;9.85;5.65;;;;;;;8.13;74.03;100361.31;4931228;29;20110;-61
2023/01/08 10:51:15;;;;;;;12.45;6.63;;;;;;;8.14;74.01;100368.25;4928253;29;20080;-62
2023/01/08 10:53:41;;;;;;;13.38;7.38;;;;;;;8.16;73.93;100351.50;4928007;29;20222;-63
2023/01/08 10:56:23;;;;;;;9.75;6.22;;;;;;;8.18;74.21;100341.78;4928073;29;20665;-60
2023/01/08 10:58:49;;;;;;;10.65;6.35;;;;;;;8.20;74.18;100336.44;4928580;28;20084;-58
2023/01/08 11:01:21;;;;;;;12.77;6.38;;;;;;;8.22;74.42;100339.84;4928368;29;20103;-60
2023/01/08 11:04:19;;;;;;;6.93;4.63;;;;;;;8.19;74.35;100348.72;4926890;29;20495;-62
2023/01/08 11:06:46;;;;;;;7.72;5.47;;;;;;;8.16;74.53;100359.38;4926493;29;20091;-62
2023/01/08 11:09:22;;;;;;;8.73;5.97;;;;;;;8.14;74.49;100358.59;4921220;29;20092;-62
2023/01/08 11:11:49;;;;;;;9.77;6.15;;;;;;;8.12;74.48;100370.09;4923817;29;20178;-60
2023/01/08 11:14:22;;;;;;;9.80;5.72;;;;;;;8.09;74.62;100356.22;4924244;29;20080;-61
2023/01/08 11:16:49;;;;;;;9.10;5.68;;;;;;;8.07;74.58;100362.50;4929284;29;20088;-61
2023/01/08 11:19:32;;;;;;;8.02;5.55;;;;;;;8.03;74.99;100355.72;4924277;29;20582;-63
2023/01/08 11:22:01;;;;;;;7.40;5.00;;;;;;;8.01;74.99;100358.44;4940546;28;20123;-62
2023/01/08 11:24:32;;;;;;;8.05;4.88;;;;;;;8.01;74.96;100357.56;4927574;29;20092;-59
2023/01/08 11:27:35;;;;;;;8.68;5.82;;;;;;;7.94;75.27;100357.88;4927700;29;20107;-65
2023/01/08 11:30:22;;;;;;;9.43;6.13;;;;;;;7.91;75.27;100355.44;4917414;29;20114;-63
2023/01/08 11:32:49;;;;;;;6.78;4.10;;;;;;;7.87;75.52;100351.28;4943360;28;20080;-59
2023/01/08 11:35:46;;;;;;;10.60;5.50;;;;;;;7.87;75.45;100351.28;4927049;28;20103;-61
2023/01/08 11:38:12;;;;;;;6.47;4.72;;;;;;;7.87;75.34;100356.53;4920478;29;20115;-61